Time;durP1;ratioP1;P1;durP2;ratioP2;P2;SDS_P1;SDS_P2;PMS_P1;PMS_P2;Temp;Humidity;BMP_temperature;BMP_pressure;BME280_temperature;BME280_humidity;BME280_pressure;Samples;Min_cycle;Max_cycle;Signal;HPM_P1;HPM_P2
2023/06/20 00:00:25;;;;;;;8.00;7.30;;;;;;;20.42;76.83;100638.34;4834845;29;20046;-85
2023/06/20 00:02:52;;;;;;;8.80;7.95;;;;;;;20.38;76.78;100635.94;4842609;29;20613;-79
2023/06/20 00:05:19;;;;;;;9.85;8.18;;;;;;;20.32;77.49;100643.28;4843800;29;20496;-80
2023/06/20 00:07:45;;;;;;;8.40;7.70;;;;;;;20.27;77.92;100653.28;4858697;29;20386;-79
2023/06/20 00:10:12;;;;;;;10.13;8.13;;;;;;;20.26;77.88;100650.69;4844456;29;20102;-80
2023/06/20 00:12:40;;;;;;;8.85;8.15;;;;;;;20.17;78.87;100650.19;4828757;29;20041;-81
2023/06/20 00:15:08;;;;;;;7.88;7.18;;;;;;;20.17;78.54;100655.53;4863259;29;20129;-80
2023/06/20 00:17:34;;;;;;;8.82;8.05;;;;;;;20.13;78.49;100647.78;4846921;29;20396;-85
2023/06/20 00:20:04;;;;;;;9.57;7.28;;;;;;;20.10;78.87;100654.13;4867412;29;20371;-81
2023/06/20 00:22:34;;;;;;;8.25;7.53;;;;;;;20.07;79.60;100656.91;4884633;29;20488;-87
2023/06/20 00:25:03;;;;;;;9.10;8.15;;;;;;;20.05;80.16;100649.94;4881794;29;20053;-80
2023/06/20 00:27:30;;;;;;;8.32;7.63;;;;;;;20.05;80.40;100650.81;4893293;29;20044;-80
2023/06/20 00:29:56;;;;;;;10.15;8.48;;;;;;;20.05;80.91;100649.94;4885598;29;20081;-86
2023/06/20 00:32:23;;;;;;;9.23;8.30;;;;;;;20.03;81.34;100655.34;4879539;29;20055;-80
2023/06/20 00:34:50;;;;;;;9.27;8.30;;;;;;;19.99;81.45;100653.75;4886847;29;20056;-86
2023/06/20 00:37:16;;;;;;;8.82;8.00;;;;;;;19.99;81.60;100653.75;4887631;29;20045;-80
2023/06/20 00:39:43;;;;;;;9.82;8.82;;;;;;;20.02;82.43;100652.75;4888427;29;20048;-85
2023/06/20 00:42:20;;;;;;;9.90;9.00;;;;;;;20.01;82.58;100649.22;4897878;29;20048;-82
2023/06/20 00:44:47;;;;;;;10.38;9.30;;;;;;;19.98;82.61;100644.91;4887522;29;20041;-80
2023/06/20 00:47:20;;;;;;;9.80;8.80;;;;;;;19.97;83.14;100645.00;4869993;29;20041;-83
2023/06/20 00:49:49;;;;;;;8.63;7.93;;;;;;;19.97;83.13;100645.00;4881865;29;20045;-83
2023/06/20 00:52:21;;;;;;;10.38;9.48;;;;;;;19.93;83.43;100646.09;4901150;29;20049;-80
2023/06/20 00:54:48;;;;;;;11.63;9.35;;;;;;;19.89;84.45;100641.84;4869384;29;20057;-81
2023/06/20 00:57:18;;;;;;;10.15;9.15;;;;;;;19.83;84.74;100637.72;4904452;29;20100;-82
2023/06/20 00:59:50;;;;;;;9.65;8.70;;;;;;;19.79;85.52;100644.94;4883699;29;20047;-80
2023/06/20 01:02:17;;;;;;;10.00;9.00;;;;;;;19.74;85.58;100646.94;4879815;29;20124;-82
2023/06/20 01:04:46;;;;;;;9.35;8.43;;;;;;;19.71;85.53;100641.78;4877580;29;20055;-80
2023/06/20 01:07:16;;;;;;;8.80;8.10;;;;;;;19.66;85.83;100651.75;4900617;29;20116;-83
2023/06/20 01:10:04;;;;;;;10.85;9.48;;;;;;;19.60;86.15;100647.56;4898500;29;20044;-84
2023/06/20 01:12:43;;;;;;;8.90;8.00;;;;;;;19.55;86.91;100641.63;4876256;29;20056;-86
2023/06/20 01:15:27;;;;;;;9.73;8.70;;;;;;;19.52;87.14;100641.78;4878964;29;20048;-83
2023/06/20 01:18:20;;;;;;;9.30;8.50;;;;;;;19.47;87.73;100646.44;4876094;29;20147;-79
2023/06/20 01:20:55;;;;;;;10.25;8.82;;;;;;;19.41;88.18;100638.75;4875217;29;20394;-79
2023/06/20 01:23:29;;;;;;;10.13;9.20;;;;;;;19.42;88.47;100648.44;4853347;29;20048;-80
2023/06/20 01:26:05;;;;;;;11.27;9.23;;;;;;;19.38;88.90;100636.25;4855082;29;20129;-80
2023/06/20 01:29:05;;;;;;;10.55;9.52;;;;;;;19.37;89.17;100638.03;4841986;29;20445;-79
2023/06/20 01:31:38;;;;;;;9.65;8.73;;;;;;;19.34;88.90;100641.69;4841718;29;20146;-87
2023/06/20 01:34:16;;;;;;;9.25;8.45;;;;;;;19.36;89.43;100643.41;4838105;29;20049;-80
2023/06/20 01:36:49;;;;;;;11.80;9.85;;;;;;;19.35;89.24;100637.25;4841192;29;20165;-86
2023/06/20 01:39:23;;;;;;;10.43;9.45;;;;;;;19.37;89.10;100630.06;4849712;29;20049;-86
2023/06/20 01:41:51;;;;;;;9.55;8.65;;;;;;;19.42;89.13;100635.16;4826575;29;20158;-82
2023/06/20 01:44:20;;;;;;;9.95;8.95;;;;;;;19.45;89.11;100633.25;4853864;29;20050;-83
2023/06/20 01:46:50;;;;;;;11.48;10.35;;;;;;;19.44;89.41;100636.81;4847987;29;20090;-82
2023/06/20 01:49:17;;;;;;;10.80;9.80;;;;;;;19.45;89.50;100627.94;4844005;29;20461;-81
2023/06/20 01:51:47;;;;;;;10.40;9.00;;;;;;;19.45;89.82;100630.59;4847016;29;20032;-85
2023/06/20 01:54:15;;;;;;;11.05;10.05;;;;;;;19.43;89.90;100631.59;4844230;29;20045;-81
2023/06/20 01:56:44;;;;;;;11.20;10.02;;;;;;;19.40;89.93;100637.03;4845751;29;20052;-83
2023/06/20 01:59:12;;;;;;;10.25;9.35;;;;;;;19.34;90.22;100631.06;4842232;29;20045;-89
2023/06/20 02:01:42;;;;;;;11.77;10.50;;;;;;;19.31;90.71;100627.72;4842500;29;20085;-84
2023/06/20 02:04:09;;;;;;;11.38;10.13;;;;;;;19.27;91.52;100632.28;4842928;29;20045;-82
2023/06/20 02:06:38;;;;;;;12.45;11.10;;;;;;;19.22;91.72;100636.09;4851241;29;20097;-80
2023/06/20 02:09:05;;;;;;;11.65;10.60;;;;;;;19.16;92.41;100638.09;4866257;29;20049;-93
2023/06/20 02:11:34;;;;;;;10.30;9.30;;;;;;;19.12;92.51;100636.47;4874905;29;20052;-81
2023/06/20 02:14:01;;;;;;;12.13;10.82;;;;;;;19.07;93.62;100638.47;4846894;29;20042;-79
2023/06/20 02:16:28;;;;;;;11.13;10.00;;;;;;;19.04;93.31;100635.13;4843251;29;20058;-81
2023/06/20 02:18:55;;;;;;;10.27;9.25;;;;;;;18.99;94.10;100635.31;4840995;29;20045;-80
2023/06/20 02:21:25;;;;;;;11.15;10.00;;;;;;;18.95;94.40;100633.75;4872659;29;20049;-84
2023/06/20 02:23:54;;;;;;;11.18;10.15;;;;;;;18.87;95.09;100623.44;4879077;29;20033;-81
2023/06/20 02:26:29;;;;;;;11.95;10.73;;;;;;;18.85;95.79;100631.47;4876915;29;20049;-79
2023/06/20 02:29:00;;;;;;;12.48;11.32;;;;;;;18.82;96.32;100628.06;4882852;29;20481;-79
2023/06/20 02:31:32;;;;;;;11.82;10.63;;;;;;;18.83;97.05;100627.16;4892302;29;20048;-79
2023/06/20 02:34:03;;;;;;;11.98;10.80;;;;;;;18.83;96.61;100629.81;4876324;29;20041;-80
2023/06/20 02:36:32;;;;;;;10.95;10.00;;;;;;;18.88;96.40;100625.16;4875685;29;20118;-83
2023/06/20 02:38:59;;;;;;;10.30;9.30;;;;;;;18.94;96.04;100627.59;4863786;29;20053;-80
2023/06/20 02:41:25;;;;;;;12.30;11.02;;;;;;;18.98;96.59;100631.81;4875877;29;20060;-82
2023/06/20 02:43:52;;;;;;;11.65;10.57;;;;;;;19.01;96.20;100638.78;4883828;29;20059;-81
2023/06/20 02:47:07;;;;;;;11.45;10.35;;;;;;;19.05;96.51;100629.75;4877150;29;20048;-82
2023/06/20 02:50:15;;;;;;;11.77;10.40;;;;;;;19.04;96.50;100620.06;4874092;29;20041;-83
2023/06/20 02:52:49;;;;;;;12.70;10.95;;;;;;;19.04;96.47;100622.72;4880345;29;20052;-80
2023/06/20 02:55:31;;;;;;;11.60;10.40;;;;;;;19.02;96.57;100629.91;4871078;29;20037;-85
2023/06/20 02:58:02;;;;;;;11.73;10.63;;;;;;;19.01;97.04;100629.00;4877918;29;20064;-79
2023/06/20 03:00:31;;;;;;;11.98;10.75;;;;;;;19.01;97.63;100629.00;4879731;29;20167;-79
2023/06/20 03:03:07;;;;;;;12.15;11.05;;;;;;;18.97;97.50;100627.44;4879669;29;20059;-79
2023/06/20 03:05:37;;;;;;;12.23;10.73;;;;;;;18.95;98.46;100629.28;4873159;29;20037;-78
2023/06/20 03:08:05;;;;;;;14.25;10.00;;;;;;;18.95;97.81;100623.97;4875254;29;20077;-79
2023/06/20 03:10:33;;;;;;;12.23;11.02;;;;;;;18.93;98.53;100622.31;4874764;29;20056;-79
2023/06/20 03:13:00;;;;;;;13.10;11.73;;;;;;;18.93;98.37;100619.66;4861836;29;20125;-82
2023/06/20 03:15:27;;;;;;;12.43;11.23;;;;;;;18.92;98.65;100623.28;4878298;29;20048;-83
2023/06/20 03:17:53;;;;;;;13.10;11.80;;;;;;;18.89;99.30;100633.97;4878814;29;20932;-81
2023/06/20 03:20:20;;;;;;;12.52;11.35;;;;;;;18.85;99.61;100635.88;4858547;29;20049;-79
2023/06/20 03:22:46;;;;;;;12.90;11.40;;;;;;;18.83;99.70;100625.34;4858283;29;20195;-88
2023/06/20 03:25:13;;;;;;;13.15;10.98;;;;;;;18.82;99.92;100622.78;4844202;29;20048;-79
2023/06/20 03:27:40;;;;;;;12.82;11.55;;;;;;;18.81;99.99;100627.22;4842270;29;20475;-80
2023/06/20 03:30:07;;;;;;;11.30;10.18;;;;;;;18.80;100.00;100630.81;4846697;29;20047;-81
2023/06/20 03:32:34;;;;;;;12.10;10.98;;;;;;;18.81;100.00;100627.22;4842664;29;20053;-80
2023/06/20 03:35:00;;;;;;;11.68;10.48;;;;;;;18.84;100.00;100626.22;4842647;29;20041;-81
2023/06/20 03:37:27;;;;;;;13.23;11.95;;;;;;;18.87;99.97;100622.59;4845753;29;20489;-79
2023/06/20 03:39:53;;;;;;;12.07;10.82;;;;;;;18.89;100.00;100615.41;4842165;29;20072;-82
2023/06/20 03:42:20;;;;;;;12.82;11.52;;;;;;;18.92;100.00;100623.28;4842434;29;20065;-82
2023/06/20 03:44:46;;;;;;;11.70;10.60;;;;;;;18.96;100.00;100625.69;4857070;29;20049;-78
2023/06/20 03:47:13;;;;;;;13.27;11.45;;;;;;;19.00;99.95;100624.63;4842138;29;20102;-85
2023/06/20 03:49:39;;;;;;;13.27;11.93;;;;;;;19.03;99.60;100620.13;4845677;29;20048;-79
2023/06/20 03:52:06;;;;;;;11.98;10.77;;;;;;;19.08;99.78;100626.94;4834977;29;20133;-85
2023/06/20 03:54:34;;;;;;;13.20;11.90;;;;;;;19.13;99.40;100617.00;4846713;29;20124;-81
2023/06/20 03:57:01;;;;;;;13.38;12.05;;;;;;;19.17;99.58;100623.88;4840928;29;20037;-79
2023/06/20 03:59:28;;;;;;;13.60;12.02;;;;;;;19.18;99.94;100622.09;4842052;29;20492;-78
2023/06/20 04:01:55;;;;;;;12.98;11.80;;;;;;;19.21;99.49;100632.56;4829857;29;20065;-79
2023/06/20 04:04:22;;;;;;;14.43;12.98;;;;;;;19.25;99.46;100638.59;4843624;29;20041;-78
2023/06/20 04:06:49;;;;;;;13.65;12.35;;;;;;;19.26;100.00;100635.03;4840067;29;20136;-78
2023/06/20 04:09:19;;;;;;;13.13;11.80;;;;;;;19.27;99.86;100648.22;4825688;29;20050;-79
2023/06/20 04:11:46;;;;;;;14.00;12.50;;;;;;;19.28;99.87;100641.09;4841229;29;20037;-78
2023/06/20 04:14:13;;;;;;;13.52;12.15;;;;;;;19.31;99.91;100636.53;4845675;29;20041;-84
2023/06/20 04:16:40;;;;;;;13.27;11.98;;;;;;;19.31;99.88;100630.38;4861806;29;20029;-86
2023/06/20 04:19:06;;;;;;;14.43;12.40;;;;;;;19.36;99.54;100631.00;4843157;29;20038;-79
2023/06/20 04:21:32;;;;;;;13.20;11.88;;;;;;;19.38;99.59;100634.44;4858551;29;20046;-83
2023/06/20 04:23:59;;;;;;;12.18;10.88;;;;;;;19.40;99.51;100643.22;4837393;29;20042;-79
2023/06/20 04:26:26;;;;;;;20.13;13.70;;;;;;;19.46;99.36;100642.06;4837570;29;20054;-77
2023/06/20 04:28:52;;;;;;;13.27;11.88;;;;;;;19.47;99.12;100636.66;4841247;29;20041;-81
2023/06/20 04:31:19;;;;;;;19.15;11.95;;;;;;;19.53;98.96;100635.53;4844752;29;20045;-85
2023/06/20 04:33:45;;;;;;;13.90;11.50;;;;;;;19.63;98.53;100641.25;4843801;29;20042;-79
2023/06/20 04:36:13;;;;;;;13.95;12.32;;;;;;;19.66;98.36;100644.66;4844865;29;20053;-81
2023/06/20 04:38:43;;;;;;;13.55;12.18;;;;;;;19.71;98.25;100643.56;4852756;29;20037;-83
2023/06/20 04:41:11;;;;;;;13.30;12.00;;;;;;;19.70;98.03;100634.75;4839455;29;20128;-79
2023/06/20 04:43:39;;;;;;;13.45;12.15;;;;;;;19.68;98.22;100639.25;4853810;29;20061;-81
2023/06/20 04:46:06;;;;;;;18.10;13.55;;;;;;;19.67;98.23;100635.75;4855767;29;20397;-82
2023/06/20 04:48:35;;;;;;;14.60;13.10;;;;;;;19.70;98.13;100641.84;4859570;29;20041;-82
2023/06/20 04:51:08;;;;;;;15.52;12.40;;;;;;;19.69;98.04;100637.47;4836587;29;20171;-81
2023/06/20 04:53:38;;;;;;;14.10;12.00;;;;;;;19.71;98.03;100646.22;4843687;29;20058;-78
2023/06/20 04:56:05;;;;;;;14.02;12.63;;;;;;;19.70;98.22;100639.19;4826887;29;20052;-79
2023/06/20 04:58:32;;;;;;;14.75;11.63;;;;;;;19.75;97.76;100639.81;4856906;29;20069;-80
2023/06/20 05:00:59;;;;;;;14.15;11.10;;;;;;;19.82;97.46;100639.50;4848933;29;20097;-81
2023/06/20 05:03:26;;;;;;;13.50;12.05;;;;;;;19.90;96.72;100643.59;4859478;29;20136;-78
2023/06/20 05:05:53;;;;;;;12.25;10.95;;;;;;;19.98;96.41;100652.03;4846303;29;20045;-78
2023/06/20 05:08:20;;;;;;;13.07;11.05;;;;;;;20.07;95.89;100654.25;4847689;29;20405;-79
2023/06/20 05:10:46;;;;;;;13.10;11.43;;;;;;;20.17;95.21;100665.31;4848809;29;20111;-78
2023/06/20 05:13:13;;;;;;;15.60;12.25;;;;;;;20.18;94.54;100656.41;4861644;29;20466;-80
2023/06/20 05:15:39;;;;;;;13.23;11.82;;;;;;;20.14;94.56;100655.69;4868073;29;20048;-78
2023/06/20 05:18:06;;;;;;;15.60;12.05;;;;;;;20.18;94.58;100659.06;4841035;29;20500;-81
2023/06/20 05:20:34;;;;;;;13.23;11.82;;;;;;;20.19;94.28;100662.56;4885256;23;20064;-84
2023/06/20 05:23:01;;;;;;;12.80;11.48;;;;;;;20.21;94.22;100661.56;4850913;29;20045;-85
2023/06/20 05:25:27;;;;;;;13.07;10.48;;;;;;;20.28;93.85;100662.94;4863763;29;20036;-80
2023/06/20 05:27:54;;;;;;;13.23;11.93;;;;;;;20.30;93.62;100662.91;4870499;29;20041;-77
2023/06/20 05:30:20;;;;;;;13.90;12.40;;;;;;;20.24;93.73;100666.69;4855819;29;20059;-77
2023/06/20 05:32:47;;;;;;;13.98;11.43;;;;;;;20.17;93.99;100671.47;4886904;29;20047;-83
2023/06/20 05:35:13;;;;;;;15.90;11.88;;;;;;;20.17;94.07;100675.94;4859503;29;20037;-90
2023/06/20 05:37:40;;;;;;;12.63;11.32;;;;;;;20.19;94.06;100671.38;4848891;29;20051;-81
2023/06/20 05:40:08;;;;;;;15.23;11.13;;;;;;;20.19;93.88;100670.53;4859811;29;20068;-78
2023/06/20 05:42:34;;;;;;;15.77;11.65;;;;;;;20.15;93.77;100670.69;4847232;29;20136;-80
2023/06/20 05:45:01;;;;;;;12.52;10.93;;;;;;;20.15;93.60;100664.50;4866468;29;20045;-78
2023/06/20 05:47:28;;;;;;;13.02;11.32;;;;;;;20.17;93.53;100670.63;4846838;29;20037;-83
2023/06/20 05:49:57;;;;;;;12.80;11.50;;;;;;;20.16;93.49;100676.88;4856589;29;20053;-82
2023/06/20 05:52:23;;;;;;;15.00;12.18;;;;;;;20.14;93.77;100674.28;4870072;29;20052;-78
2023/06/20 05:54:53;;;;;;;11.25;9.98;;;;;;;20.11;93.92;100681.53;4859225;29;20037;-83
2023/06/20 05:57:21;;;;;;;12.80;11.52;;;;;;;20.07;94.07;100688.78;4864876;29;20140;-83
2023/06/20 05:59:47;;;;;;;13.20;11.02;;;;;;;20.01;94.75;100713.00;4875443;29;20041;-79
2023/06/20 06:02:15;;;;;;;14.07;11.98;;;;;;;20.00;95.08;100719.25;4863421;29;20048;-80
2023/06/20 06:04:43;;;;;;;13.65;10.93;;;;;;;20.03;95.00;100707.63;4853081;29;20156;-80
2023/06/20 06:07:11;;;;;;;10.63;9.38;;;;;;;20.12;94.69;100702.72;4880324;29;20049;-82
2023/06/20 06:09:38;;;;;;;14.32;11.20;;;;;;;20.16;94.94;100696.31;4854183;29;20041;-79
2023/06/20 06:12:05;;;;;;;13.45;10.77;;;;;;;20.18;95.15;100704.25;4861701;29;20124;-87
2023/06/20 06:14:32;;;;;;;13.90;11.40;;;;;;;20.19;95.19;100691.78;4861628;29;20057;-80
2023/06/20 06:16:59;;;;;;;13.50;11.65;;;;;;;20.20;94.99;100701.50;4862325;29;20052;-82
2023/06/20 06:19:25;;;;;;;12.27;11.07;;;;;;;20.22;95.57;100697.84;4857112;29;20057;-88
2023/06/20 06:21:52;;;;;;;14.15;12.63;;;;;;;20.26;95.51;100696.75;4887463;29;20053;-80
2023/06/20 06:24:21;;;;;;;11.07;9.98;;;;;;;20.34;95.08;100704.34;4886336;29;20051;-78
2023/06/20 06:26:49;;;;;;;13.98;10.45;;;;;;;20.35;95.45;100698.09;4883246;29;20046;-83
2023/06/20 06:29:18;;;;;;;13.98;11.13;;;;;;;20.30;96.24;100708.09;4876724;29;20425;-79
2023/06/20 06:31:44;;;;;;;12.95;11.57;;;;;;;20.28;96.54;100696.66;4881991;29;20064;-81
2023/06/20 06:34:16;;;;;;;13.02;11.55;;;;;;;20.31;96.08;100704.47;4879086;29;20771;-80
2023/06/20 06:36:42;;;;;;;11.82;10.40;;;;;;;20.36;96.01;100694.47;4860699;29;20141;-79
2023/06/20 06:39:11;;;;;;;13.60;10.40;;;;;;;20.47;95.52;100699.28;4880511;29;20048;-79
2023/06/20 06:41:39;;;;;;;12.50;11.32;;;;;;;20.50;95.39;100704.44;4877379;29;20052;-86
2023/06/20 06:44:05;;;;;;;10.13;9.13;;;;;;;20.53;95.52;100706.09;4876452;29;20793;-89
2023/06/20 06:46:32;;;;;;;10.45;9.45;;;;;;;20.54;95.30;100708.66;4857688;29;20041;-81
2023/06/20 06:48:58;;;;;;;12.80;10.88;;;;;;;20.55;94.92;100693.59;4861528;29;20066;-81
2023/06/20 06:51:24;;;;;;;9.82;8.93;;;;;;;20.52;95.47;100702.56;4863230;29;20568;-79
2023/06/20 06:53:51;;;;;;;13.80;10.50;;;;;;;20.64;94.80;100696.63;4879350;29;20041;-80
2023/06/20 06:56:17;;;;;;;12.40;9.95;;;;;;;20.66;94.42;100702.75;4861108;29;20049;-79
2023/06/20 06:58:47;;;;;;;13.70;11.02;;;;;;;20.71;94.35;100696.34;4877437;29;20037;-78
2023/06/20 07:01:13;;;;;;;12.60;11.40;;;;;;;20.78;94.06;100693.31;4863924;29;20119;-85
2023/06/20 07:03:40;;;;;;;9.93;8.90;;;;;;;20.87;93.80;100699.97;4892605;29;20040;-79
2023/06/20 07:06:06;;;;;;;10.65;9.65;;;;;;;20.93;92.20;100696.97;4876379;29;20043;-88
2023/06/20 07:08:33;;;;;;;10.73;9.20;;;;;;;20.88;92.08;100698.16;4875774;29;20458;-84
2023/06/20 07:10:59;;;;;;;9.95;9.05;;;;;;;20.93;92.22;100704.94;4876182;29;20670;-79
2023/06/20 07:13:26;;;;;;;8.85;7.95;;;;;;;21.05;91.55;100702.59;4863673;29;20063;-78
2023/06/20 07:15:52;;;;;;;9.05;7.47;;;;;;;21.12;90.67;100707.53;4861879;29;20743;-84
2023/06/20 07:18:19;;;;;;;8.15;7.38;;;;;;;21.13;89.76;100700.38;4872682;29;20053;-80
2023/06/20 07:20:47;;;;;;;8.68;7.78;;;;;;;21.12;89.78;100694.22;4874135;29;20046;-79
2023/06/20 07:23:14;;;;;;;8.70;6.53;;;;;;;21.09;89.57;100694.38;4879326;29;20546;-78
2023/06/20 07:25:41;;;;;;;7.65;6.95;;;;;;;21.18;89.20;100689.50;4878645;29;20040;-80
2023/06/20 07:28:07;;;;;;;7.00;6.35;;;;;;;21.19;88.77;100696.56;4877177;29;20040;-85
2023/06/20 07:30:34;;;;;;;7.50;6.82;;;;;;;21.09;88.39;100694.38;4872152;29;20434;-84
2023/06/20 07:33:00;;;;;;;8.07;7.28;;;;;;;21.02;89.15;100700.13;4876337;29;20040;-79
2023/06/20 07:35:27;;;;;;;6.75;6.25;;;;;;;20.97;89.57;100697.69;4879638;29;20055;-78
2023/06/20 07:37:53;;;;;;;7.68;6.47;;;;;;;20.95;89.53;100699.53;4845938;29;20132;-81
2023/06/20 07:40:20;;;;;;;9.07;8.02;;;;;;;20.94;89.70;100695.19;4882338;29;20120;-85
2023/06/20 07:42:46;;;;;;;8.07;6.50;;;;;;;20.96;89.83;100685.31;4881500;29;20055;-80
2023/06/20 07:45:13;;;;;;;6.35;5.75;;;;;;;20.99;89.69;100690.47;4879054;29;20048;-79
2023/06/20 07:47:39;;;;;;;6.50;6.00;;;;;;;20.98;90.25;100683.44;4881207;29;20033;-80
2023/06/20 07:50:07;;;;;;;6.28;5.70;;;;;;;21.07;90.09;100682.09;4876622;29;20041;-83
2023/06/20 07:52:33;;;;;;;6.07;5.57;;;;;;;21.05;90.08;100689.28;4870141;29;20044;-78
2023/06/20 07:55:01;;;;;;;7.97;6.03;;;;;;;21.12;89.95;100688.91;4884550;29;20113;-80
2023/06/20 07:57:31;;;;;;;6.82;5.90;;;;;;;21.20;89.70;100690.28;4861045;29;20041;-78
2023/06/20 07:59:58;;;;;;;6.70;6.20;;;;;;;21.26;90.11;100685.50;4875645;29;20052;-79
2023/06/20 08:02:26;;;;;;;6.88;6.22;;;;;;;21.34;89.39;100686.88;4874814;29;20060;-80
2023/06/20 08:04:53;;;;;;;6.13;5.63;;;;;;;21.42;88.99;100672.22;4876676;29;20040;-79
2023/06/20 08:07:19;;;;;;;5.50;5.00;;;;;;;21.54;88.54;100675.19;4877938;29;20049;-79
2023/06/20 08:09:46;;;;;;;5.65;5.20;;;;;;;21.66;87.83;100682.50;4877168;29;20036;-81
2023/06/20 08:12:12;;;;;;;6.03;5.43;;;;;;;21.72;87.92;100671.53;4876368;29;20045;-83
2023/06/20 08:14:39;;;;;;;6.65;4.97;;;;;;;21.96;87.10;100671.09;4880189;29;20081;-81
2023/06/20 08:17:06;;;;;;;6.10;5.60;;;;;;;22.17;85.89;100663.66;4858056;29;20037;-85
2023/06/20 08:19:32;;;;;;;5.45;4.97;;;;;;;22.41;85.02;100669.44;4882077;29;20052;-79
2023/06/20 08:21:59;;;;;;;6.35;5.70;;;;;;;22.66;84.28;100662.66;4888217;29;20052;-80
2023/06/20 08:24:25;;;;;;;6.47;4.63;;;;;;;22.72;84.27;100656.94;4885077;29;20073;-78
2023/06/20 08:26:51;;;;;;;6.38;4.88;;;;;;;22.72;84.04;100658.75;4859133;29;20041;-78
2023/06/20 08:29:18;;;;;;;5.38;4.90;;;;;;;22.73;84.00;100663.97;4860562;29;20049;-78
2023/06/20 08:31:46;;;;;;;6.22;5.60;;;;;;;22.66;84.28;100659.97;4875414;29;20499;-78
2023/06/20 08:34:12;;;;;;;22.20;7.05;;;;;;;22.65;84.64;100663.59;4874954;29;20044;-90
2023/06/20 08:36:39;;;;;;;6.28;4.40;;;;;;;22.59;85.03;100662.16;4877995;29;20051;-80
2023/06/20 08:39:05;;;;;;;4.43;4.13;;;;;;;22.51;85.49;100656.38;4896283;29;20069;-87
2023/06/20 08:41:32;;;;;;;5.07;4.65;;;;;;;22.49;85.43;100652.09;4875647;29;20041;-82
2023/06/20 08:43:58;;;;;;;5.18;4.55;;;;;;;22.56;85.13;100666.81;4858634;29;20112;-81
2023/06/20 08:46:25;;;;;;;5.35;4.88;;;;;;;22.46;84.81;100671.81;4873721;29;20125;-79
2023/06/20 08:48:52;;;;;;;5.25;4.88;;;;;;;22.33;85.38;100673.44;4879174;29;20048;-78
2023/06/20 08:51:23;;;;;;;5.13;4.72;;;;;;;22.35;85.65;100664.41;4870424;29;20198;-85
2023/06/20 08:53:52;;;;;;;5.88;5.10;;;;;;;22.49;85.18;100660.09;4874099;29;20047;-80
2023/06/20 08:56:20;;;;;;;13.82;5.50;;;;;;;22.71;84.41;100657.88;4876216;29;20504;-83
2023/06/20 08:58:47;;;;;;;7.00;5.88;;;;;;;22.95;83.52;100658.19;4878887;29;20159;-85
2023/06/20 09:01:14;;;;;;;10.48;5.32;;;;;;;23.20;83.07;100658.53;4876746;29;20041;-82
2023/06/20 09:03:41;;;;;;;7.20;6.47;;;;;;;23.17;82.57;100656.09;4878803;29;20049;-83
2023/06/20 09:06:07;;;;;;;6.38;5.75;;;;;;;23.13;82.78;100658.03;4865346;29;20076;-81
2023/06/20 09:08:43;;;;;;;9.43;7.88;;;;;;;23.35;81.98;100665.59;4881085;29;20061;-79
2023/06/20 09:11:13;;;;;;;6.95;6.35;;;;;;;23.44;82.04;100651.66;4865944;29;20453;-78
2023/06/20 09:13:41;;;;;;;7.90;6.97;;;;;;;23.54;81.36;100657.28;4864705;29;20041;-82
2023/06/20 09:16:12;;;;;;;9.05;8.15;;;;;;;23.47;81.96;100647.94;4880829;29;20045;-84
2023/06/20 09:18:40;;;;;;;12.60;8.18;;;;;;;23.28;82.79;100653.56;4879304;29;20044;-82
2023/06/20 09:21:08;;;;;;;9.02;7.80;;;;;;;23.19;83.29;100648.81;4880042;29;20049;-79
2023/06/20 09:23:34;;;;;;;7.95;7.25;;;;;;;23.12;83.67;100642.97;4864275;29;20056;-79
2023/06/20 09:26:18;;;;;;;8.07;7.15;;;;;;;22.99;84.53;100653.53;4862977;29;20477;-79
2023/06/20 09:28:45;;;;;;;8.75;7.95;;;;;;;22.91;84.87;100648.66;4880973;29;20033;-80
2023/06/20 09:31:13;;;;;;;8.48;7.68;;;;;;;22.93;84.98;100649.44;4894530;29;20049;-83
2023/06/20 09:33:40;;;;;;;10.93;9.32;;;;;;;22.98;84.88;100649.16;4879089;29;20044;-79
2023/06/20 09:36:17;;;;;;;9.73;8.85;;;;;;;23.05;84.63;100655.84;4874561;29;20041;-82
2023/06/20 09:38:46;;;;;;;10.85;9.52;;;;;;;23.11;84.37;100650.13;4878788;29;20124;-79
2023/06/20 09:41:19;;;;;;;9.32;8.48;;;;;;;23.24;84.12;100650.22;4856485;29;20049;-81
2023/06/20 09:43:46;;;;;;;7.87;7.03;;;;;;;23.51;83.45;100640.59;4878844;29;20453;-79
2023/06/20 09:46:12;;;;;;;9.10;8.15;;;;;;;23.75;81.98;100652.38;4877953;29;20065;-82
2023/06/20 09:48:40;;;;;;;8.60;7.78;;;;;;;23.69;81.86;100654.56;4879013;29;20041;-83
2023/06/20 09:51:07;;;;;;;7.57;6.97;;;;;;;23.76;81.63;100643.41;4879825;29;20044;-80
2023/06/20 09:54:04;;;;;;;8.60;7.65;;;;;;;23.88;81.17;100654.25;4868908;29;20032;-79
2023/06/20 09:56:41;;;;;;;8.07;7.38;;;;;;;24.31;80.12;100655.97;4872669;29;20055;-79
2023/06/20 09:59:10;;;;;;;6.50;5.90;;;;;;;24.60;77.25;100657.53;4864206;29;20447;-82
2023/06/20 10:01:38;;;;;;;5.82;5.32;;;;;;;24.91;76.09;100644.75;4879682;29;20045;-80
2023/06/20 10:04:07;;;;;;;6.95;6.30;;;;;;;25.67;71.97;100649.25;4865286;29;20136;-79
2023/06/20 10:06:34;;;;;;;7.65;6.50;;;;;;;26.73;70.26;100648.59;4873036;29;20037;-82
2023/06/20 10:09:02;;;;;;;5.68;4.63;;;;;;;28.37;64.95;100630.09;4877846;29;20051;-81
2023/06/20 10:11:29;;;;;;;4.85;4.55;;;;;;;30.23;58.33;100624.59;4876266;29;20041;-81
2023/06/20 10:13:55;;;;;;;5.40;5.00;;;;;;;30.49;53.57;100614.94;4876766;29;20045;-80
2023/06/20 10:16:22;;;;;;;5.43;5.03;;;;;;;30.52;52.99;100608.41;4877282;29;20049;-83
2023/06/20 10:18:48;;;;;;;6.10;5.60;;;;;;;30.92;50.14;100601.88;4867120;29;20041;-82
2023/06/20 10:21:16;;;;;;;4.68;4.30;;;;;;;31.16;49.71;100601.38;4876266;29;20069;-85
2023/06/20 10:23:45;;;;;;;5.15;4.80;;;;;;;32.53;44.58;100596.84;4876391;29;20033;-84
2023/06/20 10:26:12;;;;;;;4.82;4.38;;;;;;;32.64;44.15;100598.44;4866563;29;20362;-88
2023/06/20 10:28:40;;;;;;;4.95;4.57;;;;;;;33.53;43.43;100604.50;4879589;29;20047;-82
2023/06/20 10:31:07;;;;;;;4.45;4.25;;;;;;;34.59;39.93;100608.34;4847441;29;20388;-83
2023/06/20 10:33:35;;;;;;;4.38;4.07;;;;;;;33.67;42.43;100613.03;4845156;29;20046;-80
2023/06/20 10:36:07;;;;;;;4.35;4.10;;;;;;;32.92;43.16;100612.72;4851801;29;20473;-80
2023/06/20 10:38:37;;;;;;;4.85;4.53;;;;;;;32.39;43.47;100610.97;4871710;29;20464;-82
2023/06/20 10:41:15;;;;;;;5.15;4.75;;;;;;;32.00;44.33;100604.84;4860219;29;20491;-80
2023/06/20 10:44:10;;;;;;;5.68;4.68;;;;;;;32.05;43.65;100601.69;4846571;29;20052;-83
2023/06/20 10:46:37;;;;;;;4.53;4.18;;;;;;;32.37;44.36;100602.97;4860405;29;20070;-80
2023/06/20 10:49:09;;;;;;;5.25;4.88;;;;;;;32.36;43.00;100606.72;4875894;29;20064;-84
2023/06/20 10:51:49;;;;;;;5.15;4.75;;;;;;;32.39;43.26;100595.56;4856881;29;20492;-80
2023/06/20 10:54:17;;;;;;;5.22;4.93;;;;;;;31.64;44.66;100596.75;4862080;29;20053;-80
2023/06/20 10:56:45;;;;;;;5.30;4.90;;;;;;;32.07;44.50;100594.28;4860603;29;20037;-81
2023/06/20 10:59:21;;;;;;;4.93;4.63;;;;;;;33.15;42.04;100585.00;4859722;29;20874;-85
2023/06/20 11:01:47;;;;;;;5.72;5.10;;;;;;;33.83;40.71;100585.91;4859567;29;20393;-79
2023/06/20 11:04:16;;;;;;;4.80;4.50;;;;;;;34.36;40.12;100582.91;4842646;29;20044;-82
2023/06/20 11:06:43;;;;;;;5.45;5.10;;;;;;;35.17;38.45;100578.28;4857109;29;20068;-80
2023/06/20 11:09:21;;;;;;;5.65;4.55;;;;;;;34.56;39.32;100586.97;4841732;29;20044;-81
2023/06/20 11:11:48;;;;;;;5.35;4.93;;;;;;;33.76;39.51;100587.59;4859583;29;20044;-80
2023/06/20 11:14:19;;;;;;;5.68;5.28;;;;;;;32.71;42.04;100585.09;4860426;29;20055;-79
2023/06/20 11:16:47;;;;;;;5.30;5.00;;;;;;;33.18;41.26;100581.13;4859556;29;20040;-86
2023/06/20 11:19:14;;;;;;;5.68;5.18;;;;;;;34.19;39.39;100580.16;4857290;29;20056;-81
2023/06/20 11:21:42;;;;;;;5.88;5.30;;;;;;;35.72;36.65;100568.31;4859276;29;20554;-82
2023/06/20 11:24:08;;;;;;;7.28;6.45;;;;;;;36.42;34.55;100573.72;4843861;29;20045;-80